createdAt,value
2022-08-11T00:01:09.908Z,56.59
2022-08-11T00:03:44.682Z,56.81
2022-08-11T00:06:14.520Z,56.95
2022-08-11T00:08:43.950Z,57.15
2022-08-11T00:11:13.233Z,56.99
2022-08-11T00:13:47.327Z,57.52
2022-08-11T00:16:20.343Z,57.30
2022-08-11T00:18:50.355Z,57.58
2022-08-11T00:21:20.853Z,58.05
2022-08-11T00:24:09.099Z,57.95
2022-08-11T00:26:36.930Z,57.92
2022-08-11T00:29:11.949Z,58.24
2022-08-11T00:31:46.293Z,58.60
2022-08-11T00:34:14.496Z,58.86
2022-08-11T00:36:55.807Z,59.20
2022-08-11T00:39:28.526Z,59.15
2022-08-11T00:42:14.755Z,59.45
2022-08-11T00:45:09.964Z,59.44
2022-08-11T00:48:10.650Z,59.62
2022-08-11T00:50:59.123Z,59.55
2022-08-11T00:53:48.022Z,59.33
2022-08-11T00:57:03.727Z,59.72
2022-08-11T01:00:06.358Z,59.80
2022-08-11T01:02:54.239Z,59.90
2022-08-11T01:05:50.307Z,60.21
2022-08-11T01:08:21.055Z,60.38
2022-08-11T01:10:53.768Z,60.72
2022-08-11T01:13:42.426Z,60.81
2022-08-11T01:16:38.553Z,61.12
2022-08-11T01:20:44.957Z,61.25
2022-08-11T01:23:07.393Z,61.10
2022-08-11T01:26:15.421Z,61.77
2022-08-11T01:28:42.418Z,61.50
2022-08-11T01:31:46.725Z,61.71
2022-08-11T01:34:35.376Z,61.72
2022-08-11T01:37:25.148Z,62.26
2022-08-11T01:40:10.737Z,62.23
2022-08-11T01:43:08.301Z,62.23
2022-08-11T01:45:40.161Z,61.95
2022-08-11T01:48:34.083Z,61.73
2022-08-11T01:51:19.060Z,61.85
2022-08-11T01:53:51.371Z,62.06
2022-08-11T01:56:30.381Z,62.07
2022-08-11T01:59:03.300Z,62.74
2022-08-11T02:01:50.482Z,63.02
2022-08-11T02:04:42.333Z,63.62
2022-08-11T02:07:36.227Z,63.51
2022-08-11T02:10:36.382Z,63.69
2022-08-11T02:13:52.230Z,64.08
2022-08-11T02:16:56.245Z,63.67
2022-08-11T02:19:52.433Z,61.65
2022-08-11T02:23:01.296Z,58.39
2022-08-11T02:25:42.897Z,57.45
2022-08-11T02:28:25.957Z,55.09
2022-08-11T02:32:24.114Z,53.52
2022-08-11T02:34:42.680Z,51.55
2022-08-11T02:37:27.771Z,51.12
2022-08-11T02:39:58.094Z,52.10
2022-08-11T02:42:47.312Z,53.71
2022-08-11T02:45:48.307Z,51.41
2022-08-11T02:48:48.152Z,49.89
2022-08-11T02:51:31.725Z,48.88
2022-08-11T02:54:14.169Z,48.24
2022-08-11T02:56:44.724Z,48.01
2022-08-11T02:59:52.230Z,47.38
2022-08-11T03:02:47.405Z,47.54
2022-08-11T03:05:37.743Z,51.74
2022-08-11T03:08:22.675Z,53.38
2022-08-11T03:11:46.011Z,51.37
2022-08-11T03:14:38.613Z,52.17
2022-08-11T03:17:43.178Z,54.26
2022-08-11T03:20:33.240Z,56.87
2022-08-11T03:23:26.833Z,58.87
2022-08-11T03:26:02.863Z,59.48
2022-08-11T03:28:35.021Z,58.98
2022-08-11T03:31:20.709Z,59.89
2022-08-11T03:34:06.841Z,60.00
2022-08-11T03:37:16.383Z,59.49
2022-08-11T03:40:11.397Z,57.95
2022-08-11T03:43:03.494Z,58.98
2022-08-11T03:45:57.419Z,59.79
2022-08-11T03:49:01.715Z,60.29
2022-08-11T03:51:51.841Z,60.44
2022-08-11T03:54:25.395Z,60.91
2022-08-11T03:57:04.754Z,61.06
2022-08-11T03:59:37.491Z,61.54
2022-08-11T04:02:22.675Z,62.06
2022-08-11T04:05:20.528Z,61.57
2022-08-11T04:08:06.149Z,60.83
2022-08-11T04:11:00.116Z,60.97
2022-08-11T04:13:33.030Z,60.80
2022-08-11T04:16:45.216Z,60.98
2022-08-11T04:19:49.846Z,60.50
2022-08-11T04:22:40.964Z,60.11
2022-08-11T04:25:17.138Z,60.22
2022-08-11T04:28:29.000Z,59.67
2022-08-11T04:31:10.069Z,60.74
2022-08-11T04:34:16.088Z,60.83
2022-08-11T04:37:23.123Z,60.58
2022-08-11T04:40:22.379Z,60.74
2022-08-11T04:43:25.124Z,60.50
2022-08-11T04:46:19.111Z,60.40
2022-08-11T04:49:43.781Z,60.21
2022-08-11T04:52:36.046Z,60.80
2022-08-11T04:56:01.330Z,60.48
2022-08-11T04:59:15.992Z,60.30
2022-08-11T05:02:05.943Z,60.40
2022-08-11T05:05:15.723Z,59.70
2022-08-11T05:08:04.116Z,59.89
2022-08-11T05:10:52.911Z,59.90
2022-08-11T05:13:47.630Z,59.50
2022-08-11T05:16:38.496Z,60.10
2022-08-11T05:19:24.359Z,60.07
2022-08-11T05:22:15.544Z,59.96
2022-08-11T05:25:05.228Z,60.14
2022-08-11T05:27:57.614Z,59.22
2022-08-11T05:30:47.927Z,58.75
2022-08-11T05:33:49.481Z,58.53
2022-08-11T05:36:42.207Z,58.50
2022-08-11T05:39:45.440Z,58.74
2022-08-11T05:42:33.101Z,59.24
2022-08-11T05:45:24.312Z,58.56
2022-08-11T05:48:10.839Z,58.69
2022-08-11T05:50:57.363Z,58.04
2022-08-11T05:53:46.083Z,58.83
2022-08-11T05:56:24.802Z,57.98
2022-08-11T05:58:53.878Z,57.45
2022-08-11T06:01:27.888Z,57.42
2022-08-11T06:04:16.466Z,56.54
2022-08-11T06:06:51.390Z,56.01
2022-08-11T06:09:48.358Z,56.34
2022-08-11T06:12:21.846Z,56.43
2022-08-11T06:14:54.460Z,56.12
2022-08-11T06:17:39.044Z,55.70
2022-08-11T06:20:13.242Z,55.16
2022-08-11T06:22:43.888Z,55.32
2022-08-11T06:25:12.552Z,54.83
2022-08-11T06:27:43.230Z,54.81
2022-08-11T06:30:14.118Z,54.25
2022-08-11T06:32:46.834Z,54.48
2022-08-11T06:35:30.298Z,53.58
2022-08-11T06:38:24.673Z,54.20
2022-08-11T06:41:19.289Z,53.50
2022-08-11T06:44:05.191Z,53.59
2022-08-11T06:46:39.098Z,53.64
2022-08-11T06:49:27.712Z,52.89
2022-08-11T06:52:00.576Z,52.82
2022-08-11T06:54:42.998Z,52.88
2022-08-11T06:57:32.334Z,52.72
2022-08-11T07:00:19.695Z,52.46
2022-08-11T07:02:55.140Z,52.78
2022-08-11T07:05:44.447Z,52.17
2022-08-11T07:08:45.291Z,52.19
2022-08-11T07:11:43.189Z,52.02
2022-08-11T07:14:33.889Z,51.19
2022-08-11T07:17:08.672Z,52.48
2022-08-11T07:19:57.435Z,51.88
2022-08-11T07:22:45.124Z,52.03
2022-08-11T07:25:33.692Z,50.46
2022-08-11T07:28:29.514Z,50.10
2022-08-11T07:31:03.644Z,49.87
2022-08-11T07:34:05.488Z,48.81
2022-08-11T07:36:38.704Z,48.19
2022-08-11T07:39:11.772Z,47.95
2022-08-11T07:41:39.353Z,46.54
2022-08-11T07:44:10.068Z,45.59
2022-08-11T07:47:00.868Z,46.20
2022-08-11T07:49:49.594Z,45.93
2022-08-11T07:52:35.243Z,44.06
2022-08-11T07:55:10.324Z,45.56
2022-08-11T07:58:15.370Z,45.11
2022-08-11T08:01:10.078Z,43.72
2022-08-11T08:03:58.249Z,43.03
2022-08-11T08:06:46.404Z,41.12
2022-08-11T08:09:34.317Z,42.09
2022-08-11T08:12:22.309Z,41.88
2022-08-11T08:15:10.081Z,41.50
2022-08-11T08:18:09.287Z,37.41
2022-08-11T08:20:46.985Z,40.65
2022-08-11T08:23:14.833Z,40.86
2022-08-11T08:25:45.194Z,39.90
2022-08-11T08:28:16.673Z,39.52
2022-08-11T08:30:48.244Z,38.99
2022-08-11T08:33:29.304Z,40.02
2022-08-11T08:36:11.994Z,39.88
2022-08-11T08:38:50.584Z,40.56
2022-08-11T08:41:28.461Z,40.91
2022-08-11T08:44:21.138Z,40.89
2022-08-11T08:46:56.595Z,39.92
2022-08-11T08:49:31.170Z,40.85
2022-08-11T08:52:28.073Z,41.63
2022-08-11T08:54:55.973Z,41.28
2022-08-11T08:57:28.079Z,38.65
2022-08-11T08:59:56.894Z,38.34
2022-08-11T09:02:34.661Z,37.28
2022-08-11T09:05:04.570Z,37.43
2022-08-11T09:07:38.896Z,37.25
2022-08-11T09:10:09.505Z,38.13
2022-08-11T09:12:40.923Z,39.23
2022-08-11T09:15:11.708Z,39.26
2022-08-11T09:17:42.124Z,39.10
2022-08-11T09:20:12.473Z,38.08
2022-08-11T09:23:41.281Z,39.74
2022-08-11T09:26:05.233Z,40.03
2022-08-11T09:28:34.495Z,38.39
2022-08-11T09:31:02.763Z,38.65
2022-08-11T09:33:31.825Z,40.54
2022-08-11T09:36:21.087Z,40.93
2022-08-11T09:39:08.955Z,40.47
2022-08-11T09:42:01.943Z,40.68
2022-08-11T09:44:43.652Z,40.34
2022-08-11T09:47:15.579Z,41.17
2022-08-11T09:49:45.089Z,41.12
2022-08-11T09:52:14.409Z,41.02
2022-08-11T09:54:43.442Z,40.65
2022-08-11T09:57:38.091Z,40.59
2022-08-11T10:00:13.430Z,40.67
2022-08-11T10:02:44.751Z,40.34
2022-08-11T10:05:35.448Z,40.59
2022-08-11T10:08:03.691Z,40.27
2022-08-11T10:10:36.438Z,40.36
2022-08-11T10:13:44.126Z,39.32
2022-08-11T10:16:14.421Z,39.37
2022-08-11T10:18:53.042Z,38.91
2022-08-11T10:21:36.210Z,39.38
2022-08-11T10:24:24.035Z,38.74
2022-08-11T10:26:55.735Z,40.21
2022-08-11T10:29:55.890Z,39.94
2022-08-11T10:32:57.511Z,40.24
2022-08-11T10:35:32.449Z,41.18
2022-08-11T10:38:06.795Z,38.53
2022-08-11T10:40:41.756Z,38.48
2022-08-11T10:44:02.599Z,39.60
2022-08-11T10:46:29.801Z,38.37
2022-08-11T10:48:59.305Z,36.84
2022-08-11T10:51:51.526Z,37.73
2022-08-11T10:54:39.819Z,38.42
2022-08-11T10:57:25.907Z,38.21
2022-08-11T10:59:56.967Z,38.38
2022-08-11T11:02:27.271Z,38.05
2022-08-11T11:04:59.439Z,37.82
2022-08-11T11:07:52.417Z,37.67
2022-08-11T11:10:19.792Z,38.73
2022-08-11T11:13:10.155Z,37.94
2022-08-11T11:15:55.676Z,38.74
2022-08-11T11:18:30.055Z,38.03
2022-08-11T11:21:05.690Z,38.40
2022-08-11T11:23:39.268Z,37.71
2022-08-11T11:26:27.707Z,38.50
2022-08-11T11:29:30.059Z,37.61
2022-08-11T11:32:09.226Z,37.50
2022-08-11T11:35:09.764Z,37.84
2022-08-11T11:37:38.304Z,37.55
2022-08-11T11:40:14.341Z,36.25
2022-08-11T11:42:44.875Z,37.69
2022-08-11T11:45:23.249Z,37.40
2022-08-11T11:47:54.516Z,36.90
2022-08-11T11:50:31.479Z,37.37
2022-08-11T11:53:02.083Z,37.42
2022-08-11T11:55:30.679Z,37.08
2022-08-11T11:58:36.159Z,36.77
2022-08-11T12:01:21.005Z,36.25
2022-08-11T12:03:51.021Z,34.58
2022-08-11T12:06:22.071Z,35.62
2022-08-11T12:08:53.570Z,35.56
2022-08-11T12:11:41.348Z,35.80
2022-08-11T12:14:11.764Z,35.90
2022-08-11T12:16:44.605Z,36.28
2022-08-11T12:19:23.425Z,36.32
2022-08-11T12:22:09.921Z,36.17
2022-08-11T12:25:04.313Z,36.15
2022-08-11T12:27:31.772Z,36.22
2022-08-11T12:30:08.545Z,36.66
2022-08-11T12:32:38.116Z,36.54
2022-08-11T12:35:07.066Z,36.89
2022-08-11T12:37:41.440Z,36.93
2022-08-11T12:40:49.732Z,36.57
2022-08-11T12:43:39.915Z,36.28
2022-08-11T12:46:32.248Z,37.04
2022-08-11T12:49:27.179Z,36.00
2022-08-11T12:52:00.856Z,36.15
2022-08-11T12:55:01.036Z,36.07
2022-08-11T12:57:54.414Z,36.21
2022-08-11T13:00:42.582Z,36.11
2022-08-11T13:03:30.566Z,35.83
2022-08-11T13:06:04.008Z,36.27
2022-08-11T13:08:35.688Z,35.78
2022-08-11T13:11:22.342Z,35.78
2022-08-11T13:13:57.062Z,35.68
2022-08-11T13:16:56.379Z,35.82
2022-08-11T13:19:24.229Z,36.54
2022-08-11T13:21:53.234Z,35.90
2022-08-11T13:24:22.183Z,37.09
2022-08-11T13:26:50.940Z,35.96
2022-08-11T13:29:23.529Z,35.70
2022-08-11T13:31:54.854Z,35.26
2022-08-11T13:34:24.152Z,36.12
2022-08-11T13:36:54.688Z,34.96
2022-08-11T13:39:25.896Z,35.19
2022-08-11T13:41:56.885Z,36.03
2022-08-11T13:44:27.589Z,35.54
2022-08-11T13:46:59.267Z,35.85
2022-08-11T13:49:27.607Z,35.77
2022-08-11T13:51:56.167Z,35.88
2022-08-11T13:54:30.200Z,35.28
2022-08-11T13:57:01.764Z,35.60
2022-08-11T13:59:31.153Z,34.88
2022-08-11T14:02:21.187Z,35.65
2022-08-11T14:04:58.118Z,34.58
2022-08-11T14:07:33.484Z,34.28
2022-08-11T14:10:01.427Z,35.14
2022-08-11T14:12:50.379Z,35.92
2022-08-11T14:15:25.256Z,36.15
2022-08-11T14:17:57.375Z,36.03
2022-08-11T14:20:39.854Z,35.73
2022-08-11T14:23:11.514Z,36.28
2022-08-11T14:26:02.411Z,36.00
2022-08-11T14:28:41.792Z,35.75
2022-08-11T14:31:15.636Z,35.85
2022-08-11T14:34:01.040Z,36.16
2022-08-11T14:36:36.257Z,35.65
2022-08-11T14:39:08.363Z,35.86
2022-08-11T14:42:10.344Z,35.93
2022-08-11T14:45:00.973Z,36.54
2022-08-11T14:47:30.972Z,37.03
2022-08-11T14:50:11.813Z,36.22
2022-08-11T14:53:01.895Z,36.85
2022-08-11T14:55:50.505Z,36.37
2022-08-11T14:58:21.417Z,36.70
2022-08-11T15:00:57.213Z,36.22
2022-08-11T15:03:28.340Z,36.23
2022-08-11T15:05:58.633Z,36.79
2022-08-11T15:08:48.315Z,36.32
2022-08-11T15:11:36.009Z,36.59
2022-08-11T15:14:06.162Z,36.16
2022-08-11T15:16:52.009Z,35.98
2022-08-11T15:19:23.784Z,35.66
2022-08-11T15:22:10.051Z,35.67
2022-08-11T15:24:37.723Z,35.79
2022-08-11T15:27:27.383Z,35.87
2022-08-11T15:30:20.884Z,35.55
2022-08-11T15:33:24.743Z,36.01
2022-08-11T15:36:12.884Z,35.47
2022-08-11T15:38:47.090Z,35.40
2022-08-11T15:41:35.798Z,35.21
2022-08-11T15:45:01.537Z,35.30
2022-08-11T15:47:37.669Z,35.08
2022-08-11T15:50:11.361Z,35.19
2022-08-11T15:52:52.692Z,35.93
2022-08-11T15:55:21.360Z,35.36
2022-08-11T15:58:10.390Z,34.83
2022-08-11T16:01:00.707Z,35.54
2022-08-11T16:04:07.891Z,34.79
2022-08-11T16:06:49.239Z,31.92
2022-08-11T16:09:51.845Z,32.22
2022-08-11T16:12:31.002Z,31.40
2022-08-11T16:15:20.741Z,31.94
2022-08-11T16:18:07.399Z,33.68
2022-08-11T16:20:35.697Z,33.77
2022-08-11T16:23:04.927Z,34.88
2022-08-11T16:27:05.716Z,34.79
2022-08-11T16:28:25.215Z,35.55
2022-08-11T16:30:55.102Z,37.13
2022-08-11T16:33:50.128Z,37.71
2022-08-11T16:36:32.939Z,38.89
2022-08-11T16:39:01.933Z,39.39
2022-08-11T16:41:53.856Z,39.50
2022-08-11T16:44:41.091Z,40.17
2022-08-11T16:47:12.193Z,41.78
2022-08-11T16:49:44.245Z,41.33
2022-08-11T16:52:22.135Z,41.88
2022-08-11T16:54:49.428Z,42.13
2022-08-11T16:57:39.835Z,43.12
2022-08-11T17:00:12.603Z,42.99
2022-08-11T17:03:04.064Z,41.82
2022-08-11T17:05:54.322Z,40.42
2022-08-11T17:08:54.244Z,42.06
2022-08-11T17:11:49.719Z,43.62
2022-08-11T17:14:35.063Z,41.75
2022-08-11T17:17:20.965Z,41.53
2022-08-11T17:20:39.431Z,42.59
2022-08-11T17:23:05.355Z,43.14
2022-08-11T17:25:58.729Z,43.27
2022-08-11T17:28:24.480Z,42.16
2022-08-11T17:31:22.536Z,43.44
2022-08-11T17:34:10.344Z,43.08
2022-08-11T17:36:43.045Z,43.68
2022-08-11T17:39:13.423Z,43.71
2022-08-11T17:42:20.382Z,43.37
2022-08-11T17:45:07.109Z,43.59
2022-08-11T17:47:53.294Z,43.45
2022-08-11T17:50:22.276Z,43.46
2022-08-11T17:53:09.639Z,43.58
2022-08-11T17:55:57.873Z,42.94
2022-08-11T17:58:44.996Z,42.93
2022-08-11T18:01:14.127Z,42.55
2022-08-11T18:03:56.300Z,44.22
2022-08-11T18:06:34.544Z,44.73
2022-08-11T18:09:26.085Z,43.75
2022-08-11T18:12:13.593Z,44.74
2022-08-11T18:15:04.255Z,44.57
2022-08-11T18:17:50.976Z,44.95
2022-08-11T18:20:37.539Z,44.71
2022-08-11T18:23:45.531Z,46.29
2022-08-11T18:26:38.017Z,45.55
2022-08-11T18:29:26.820Z,46.11
2022-08-11T18:32:20.869Z,45.65
2022-08-11T18:35:11.745Z,45.49
2022-08-11T18:38:04.125Z,45.73
2022-08-11T18:40:51.715Z,45.63
2022-08-11T18:43:42.962Z,45.55
2022-08-11T18:46:31.886Z,46.31
2022-08-11T18:49:21.902Z,46.29
2022-08-11T18:52:10.713Z,45.80
2022-08-11T18:54:59.955Z,45.96
2022-08-11T18:57:49.528Z,45.89
2022-08-11T19:00:42.271Z,46.12
2022-08-11T19:03:31.311Z,45.94
2022-08-11T19:06:39.771Z,45.94
2022-08-11T19:09:30.701Z,45.93
2022-08-11T19:12:19.331Z,46.33
2022-08-11T19:15:08.393Z,46.63
2022-08-11T19:17:57.649Z,46.56
2022-08-11T19:20:46.169Z,46.62
2022-08-11T19:23:35.883Z,46.59
2022-08-11T19:26:23.194Z,47.08
2022-08-11T19:30:05.180Z,47.74
2022-08-11T19:32:18.103Z,47.47
2022-08-11T19:35:04.602Z,47.72
2022-08-11T19:37:52.089Z,48.03
2022-08-11T19:40:39.038Z,47.38
2022-08-11T19:43:27.122Z,48.45
2022-08-11T19:46:16.024Z,48.53
2022-08-11T19:49:09.252Z,49.29
2022-08-11T19:51:56.305Z,49.94
2022-08-11T19:54:48.715Z,49.93
2022-08-11T19:57:39.987Z,50.71
2022-08-11T20:00:33.330Z,51.04
2022-08-11T20:03:20.838Z,50.82
2022-08-11T20:06:08.335Z,50.46
2022-08-11T20:08:58.761Z,50.85
2022-08-11T20:11:49.886Z,50.45
2022-08-11T20:14:38.670Z,51.06
2022-08-11T20:17:27.188Z,50.77
2022-08-11T20:20:13.594Z,51.37
2022-08-11T20:22:59.810Z,51.70
2022-08-11T20:25:46.432Z,51.78
2022-08-11T20:28:35.128Z,51.61
2022-08-11T20:31:22.872Z,52.38
2022-08-11T20:34:09.426Z,53.25
2022-08-11T20:36:57.086Z,54.09
2022-08-11T20:39:43.691Z,54.87
2022-08-11T20:42:31.240Z,55.43
2022-08-11T20:45:23.723Z,56.29
2022-08-11T20:48:15.093Z,57.10
2022-08-11T20:51:06.473Z,56.39
2022-08-11T20:53:59.321Z,56.07
2022-08-11T20:56:53.561Z,56.46
2022-08-11T20:59:52.718Z,56.56
2022-08-11T21:02:45.069Z,57.19
2022-08-11T21:06:10.545Z,57.68
2022-08-11T21:08:46.057Z,58.36
2022-08-11T21:11:34.631Z,58.28
2022-08-11T21:14:23.623Z,58.84
2022-08-11T21:17:27.991Z,59.20
2022-08-11T21:20:22.204Z,59.36
2022-08-11T21:23:23.364Z,59.68
2022-08-11T21:26:15.634Z,59.98
2022-08-11T21:29:02.404Z,60.36
2022-08-11T21:31:50.124Z,60.45
2022-08-11T21:34:38.735Z,60.56
2022-08-11T21:37:27.481Z,60.48
2022-08-11T21:40:17.114Z,60.35
2022-08-11T21:43:05.551Z,60.00
2022-08-11T21:45:53.748Z,59.63
2022-08-11T21:48:41.751Z,59.02
2022-08-11T21:51:27.555Z,59.31
2022-08-11T21:54:13.572Z,58.45
2022-08-11T21:57:00.014Z,57.96
2022-08-11T22:00:15.375Z,57.58
2022-08-11T22:03:04.681Z,57.43
2022-08-11T22:05:52.557Z,57.38
2022-08-11T22:08:38.566Z,56.78
2022-08-11T22:11:32.416Z,57.60
2022-08-11T22:14:22.899Z,57.32
2022-08-11T22:17:09.103Z,57.65
2022-08-11T22:19:56.138Z,57.71
2022-08-11T22:22:48.281Z,57.81
2022-08-11T22:25:46.495Z,58.30
2022-08-11T22:28:37.911Z,58.64
2022-08-11T22:31:25.297Z,59.29
2022-08-11T22:34:10.895Z,59.09
2022-08-11T22:36:57.471Z,59.36
2022-08-11T22:39:44.640Z,59.86
2022-08-11T22:42:45.831Z,60.30
2022-08-11T22:45:31.904Z,61.00
2022-08-11T22:48:20.841Z,61.31
2022-08-11T22:51:06.832Z,61.62
2022-08-11T22:53:57.380Z,62.51
2022-08-11T22:56:48.646Z,62.84
2022-08-11T22:59:35.716Z,63.21
2022-08-11T23:02:23.098Z,63.87
2022-08-11T23:05:10.092Z,63.55
2022-08-11T23:07:57.044Z,62.97
2022-08-11T23:10:43.326Z,62.58
2022-08-11T23:13:29.379Z,62.27
2022-08-11T23:16:16.376Z,62.53
2022-08-11T23:19:03.444Z,63.18
2022-08-11T23:21:50.035Z,63.30
2022-08-11T23:24:36.645Z,63.11
2022-08-11T23:27:24.414Z,63.53
2022-08-11T23:30:13.329Z,63.40
2022-08-11T23:33:03.694Z,63.30
2022-08-11T23:35:57.886Z,64.35
2022-08-11T23:38:45.753Z,65.28
2022-08-11T23:41:34.836Z,63.82
2022-08-11T23:44:21.905Z,62.46
2022-08-11T23:47:10.200Z,63.05
2022-08-11T23:49:57.411Z,63.14
2022-08-11T23:52:46.025Z,63.69
2022-08-11T23:55:31.908Z,63.98
2022-08-11T23:58:17.960Z,63.90
